x

Fripp Nearshore (frp 2) (41033) Weather Station

9:00pm - Thu 26th Mar 2015 All times are EDT. -4 hours from GMT.

  • Wind
    9mph, 11mph gusts
  • Air Temp 62°f
  • Sea Pressure 1010.2mb
  • Fripp Nearshore (frp 2)
  • Fripp Nearshore (frp 2)

More Historic Weather Station data

Upgrade to MSW Pro to gain access to the past 30 days of data for over 8000 Wavebouys and Weather Stations around the globe.

Join Pro

Comparision Forecast

View Surf forecast
   
Thu 03/26 9:00pm 9 11 mph 1010.2mb 62f
8:00pm 9 11 mph 1010.9mb 62f
7:00pm 11
mph
1010.9mb 62f
6:00pm 13
mph
1011.4mb 64f
5:00pm 11 16 mph 1011.6mb 63f
4:00pm 16 18 mph 1012.1mb 62f
3:00pm 9 11 mph 1013.4mb 61f
2:00pm 13 16 mph 1014.3mb 61f
1:00pm 11 13 mph 1014.7mb 62f
12:00pm 9 11 mph 1015.4mb 62f
11:00am 9 11 mph 1016.4mb 61f
10:00am 7
mph
1016.9mb 60f
9:00am 4
mph
1017mb 59f
8:00am 7 9 mph 1016.7mb 59f
7:00am 11
mph
1016.5mb 59f
6:00am 9 11 mph 1016.5mb 59f
5:00am 4 7 mph 1016.4mb 59f
4:00am 7 9 mph 1016.4mb 60f
3:00am  -  2 mph 1017.1mb 60f
2:00am 2 4 mph 1017.8mb 60f
1:00am 4 7 mph 1018.3mb 60f
12:00am 2 7 mph 1018.5mb 61f
Wed 03/25 11:00pm 7 9 mph 1019.1mb 61f
10:00pm 4
mph
1019.1mb 61f
9:00pm  -  2 mph 1019.2mb 62f
8:00pm 4
mph
1019.5mb 62f
7:00pm 4
mph
1019.7mb 64f
6:00pm 2 4 mph 1019.5mb 65f
5:00pm 4 7 mph 1019.7mb 66f
4:00pm 2 4 mph 1019.7mb 66f
3:00pm 4 7 mph 1019.9mb 64f
2:00pm 4 7 mph 1020.3mb 64f
1:00pm 7 11 mph 1020.7mb 61f
12:00pm 13 16 mph 1020.8mb 60f
11:00am 13 18 mph 1020.7mb 60f
10:00am 13 16 mph 1020.4mb 60f
9:00am 16 18 mph 1020mb 60f
8:00am 20 25 mph 1019.4mb 63f
7:00am 13 16 mph 1019.2mb 60f
6:00am 16 18 mph 1019mb 60f
5:00am 13 16 mph 1018.6mb 60f
4:00am 13 16 mph 1018.4mb 60f
3:00am 18 20 mph 1018.8mb 60f
2:00am 16 20 mph 1019mb 60f
1:00am 20 25 mph 1019.1mb 60f
12:00am 18 20 mph 1019.5mb 60f
Tue 03/24 11:00pm 18 20 mph 1019.7mb 59f
10:00pm 18 20 mph 1020.1mb 59f
9:00pm 18 22 mph 1019.9mb 58f
8:00pm 18 20 mph 1019.9mb 58f
7:00pm 18 22 mph 1019.7mb 58f
6:00pm 29 34 mph 1019.9mb 57f
5:00pm 20 27 mph 1019.9mb 58f
4:00pm 20 22 mph 1020.1mb 58f
3:00pm 18 22 mph 1020.2mb 58f
2:00pm 20 25 mph 1020.2mb 57f
1:00pm 18 22 mph 1020.6mb 56f
12:00pm 20 25 mph 1020.6mb 56f
11:00am 20 25 mph 1020.8mb 55f
10:00am 18 22 mph 1020.6mb 55f
9:00am 18 22 mph 1020.1mb 55f
8:00am 16 20 mph 1019.4mb 55f
7:00am 16 20 mph 1018.8mb 55f
6:00am 18 20 mph 1018.1mb 54f
5:00am 18 22 mph 1017.8mb 55f
4:00am 16 20 mph 1018.1mb 55f
3:00am 18 22 mph 1018.1mb 55f
2:00am 18 22 mph 1018.4mb 55f
1:00am 18 22 mph 1018.4mb 54f
12:00am 18 20 mph 1018.9mb 55f
Mon 03/23 11:00pm 20 25 mph 1018mb 55f
10:00pm 20 25 mph 1017.7mb 56f
9:00pm 22 25 mph 1017.6mb 56f
8:00pm 20 25 mph 1017.4mb 56f
7:00pm 22 27 mph 1017.3mb 56f
6:00pm 27 31 mph 1016.2mb 56f
5:00pm 27 31 mph 1015.5mb 56f
4:00pm 18 20 mph 1015.4mb 57f
3:00pm 20 22 mph 1015.2mb 57f
2:00pm 18 20 mph 1015.6mb 57f
1:00pm 20 25 mph 1015.5mb 57f
12:00pm 18 22 mph 1015.5mb 56f
11:00am 20 22 mph 1015.1mb 57f
10:00am 22 25 mph 1014.5mb 57f
9:00am 18 22 mph 1014.2mb 56f
8:00am 25 27 mph 1013.5mb 56f
7:00am 22 25 mph 1012.8mb 57f
6:00am 22 25 mph 1012.1mb 56f
5:00am 18 20 mph 1012.6mb 57f
4:00am 18 22 mph 1012.1mb 56f
3:00am 22 27 mph 1013.2mb 57f